createdAt,value
2023-02-14T09:21:22.271Z,64.28
2023-02-14T09:22:22.206Z,64.46
2023-02-14T09:23:22.232Z,66.21
2023-02-14T09:24:22.851Z,66.35
2023-02-14T09:25:22.144Z,68.9
2023-02-14T09:26:22.163Z,68.97
2023-02-14T09:27:22.163Z,69.71
2023-02-14T09:28:22.125Z,69.24
2023-02-14T09:29:22.137Z,66.97
2023-02-14T09:30:22.094Z,65.44
2023-02-14T09:31:22.150Z,65.44
2023-02-14T09:32:22.186Z,64.76
2023-02-14T09:33:22.069Z,64.49
2023-02-14T09:34:22.167Z,64.36
2023-02-14T09:35:22.060Z,65.67
2023-02-14T09:36:22.040Z,65.03
2023-02-14T09:37:22.022Z,65.34
2023-02-14T09:38:22.061Z,65.34
2023-02-14T09:39:22.031Z,66.39
2023-02-14T09:40:22.103Z,67.24
2023-02-14T09:41:21.989Z,67.24
2023-02-14T09:42:22.063Z,67.37
2023-02-14T09:43:23.024Z,67.65
2023-02-14T09:44:22.014Z,67.21
2023-02-14T09:45:23.040Z,65.7
2023-02-14T09:46:22.135Z,66.9
2023-02-14T09:47:21.929Z,66.69
2023-02-14T09:48:22.293Z,66.62
2023-02-14T09:49:23.357Z,67.03
2023-02-14T09:50:21.949Z,67.21
2023-02-14T09:51:21.887Z,66.83
2023-02-14T09:52:21.881Z,0
2023-02-14T09:53:21.878Z,0
2023-02-14T09:54:21.898Z,70.12
2023-02-14T09:55:21.857Z,0
2023-02-14T09:56:21.826Z,0
2023-02-14T09:57:21.818Z,70.74
2023-02-14T09:58:21.838Z,0
2023-02-14T09:59:21.876Z,70.67
2023-02-14T10:00:21.788Z,70.77
2023-02-14T10:01:21.832Z,0
2023-02-14T10:02:21.925Z,70.5
2023-02-14T10:03:21.764Z,68.46
2023-02-14T10:04:21.902Z,67.75
2023-02-14T10:05:21.894Z,66.74
2023-02-14T10:06:21.732Z,65.14
2023-02-14T10:07:21.893Z,64.43
2023-02-14T10:08:21.751Z,63.89
2023-02-14T10:09:22.721Z,63.76
2023-02-14T10:10:21.792Z,62.78
2023-02-14T10:11:21.872Z,61.59
2023-02-14T10:12:21.734Z,62.74
2023-02-14T10:13:21.668Z,63.01
2023-02-14T10:14:21.731Z,62.4
2023-02-14T10:15:21.632Z,62.27
2023-02-14T10:16:21.802Z,61.66
2023-02-14T10:17:21.757Z,61.49
2023-02-14T10:18:21.838Z,62.51
2023-02-14T10:19:21.595Z,62.58
2023-02-14T10:20:21.618Z,62.17
2023-02-14T10:21:21.654Z,62.77
2023-02-14T10:22:21.599Z,64.05
2023-02-14T10:23:21.551Z,63.68
2023-02-14T10:24:21.772Z,62.81
2023-02-14T10:25:21.610Z,62.51
2023-02-14T10:26:21.724Z,61.83
2023-02-14T10:27:21.503Z,61.27
2023-02-14T10:28:21.746Z,60.36
2023-02-14T10:29:21.809Z,60.49
2023-02-14T10:30:22.574Z,60.59
2023-02-14T10:31:21.482Z,59.64
2023-02-14T10:32:21.488Z,58.91
2023-02-14T10:33:21.535Z,58.91
2023-02-14T10:34:22.473Z,59.77
2023-02-14T10:35:21.454Z,60.52
2023-02-14T10:36:21.474Z,60.61
2023-02-14T10:37:21.394Z,61.53
2023-02-14T10:38:21.478Z,60.69
2023-02-14T10:39:21.387Z,60.15
2023-02-14T10:40:21.365Z,0
2023-02-14T10:41:21.564Z,64.53
2023-02-14T10:42:21.655Z,62.68
2023-02-14T10:43:21.611Z,61.51
2023-02-14T10:44:21.383Z,59.41
2023-02-14T10:45:21.898Z,59.59
2023-02-14T10:46:21.417Z,58.47
2023-02-14T10:47:21.594Z,59.28
2023-02-14T10:48:24.030Z,59.28
2023-02-14T10:49:21.295Z,58.65
2023-02-14T10:50:21.359Z,57.88
2023-02-14T10:51:21.268Z,58.65
2023-02-14T10:52:21.331Z,60.13
2023-02-14T10:53:21.274Z,60.33
2023-02-14T10:54:21.232Z,59.59
2023-02-14T10:55:21.382Z,60.69
2023-02-14T10:56:21.309Z,60.13
2023-02-14T10:57:21.263Z,60.22
2023-02-14T10:58:21.526Z,60.25
2023-02-14T11:03:40.880Z,59.21
2023-02-14T11:04:40.677Z,59.89
2023-02-14T11:05:40.726Z,59.48
2023-02-14T11:06:40.721Z,58.65
2023-02-14T11:07:41.109Z,59.08
2023-02-14T11:08:40.708Z,59.59
2023-02-14T11:09:41.837Z,59.92
2023-02-14T11:10:40.619Z,61.57
2023-02-14T11:11:40.610Z,61.51
2023-02-14T11:12:40.586Z,61.78
2023-02-14T11:13:40.612Z,62.52
2023-02-14T11:14:40.661Z,61.3
2023-02-14T11:15:40.595Z,61.78
2023-02-14T11:16:40.939Z,61.62
2023-02-14T11:17:40.662Z,60.27
2023-02-14T11:18:41.531Z,59.74
2023-02-14T11:19:40.509Z,58.75
2023-02-14T11:20:40.500Z,59.23
2023-02-14T11:21:40.522Z,59.12
2023-02-14T11:22:40.481Z,58.56
2023-02-14T11:23:40.489Z,59.66
2023-02-14T11:24:40.503Z,59.43
2023-02-14T11:25:40.535Z,59.16
2023-02-14T11:26:40.469Z,60.5
2023-02-14T11:27:40.428Z,60.27
2023-02-14T11:28:40.424Z,60.37
2023-02-14T11:29:40.400Z,59.86
2023-02-14T11:30:40.394Z,60.07
2023-02-14T11:31:40.468Z,59.66
2023-02-14T11:32:40.365Z,0
2023-02-14T11:33:40.366Z,0
2023-02-14T11:34:40.359Z,0
2023-02-14T11:35:40.339Z,0
2023-02-14T11:36:40.320Z,0
2023-02-14T11:37:40.313Z,0
2023-02-14T11:38:40.318Z,0
2023-02-14T11:39:40.296Z,0
2023-02-14T11:40:40.287Z,0
2023-02-14T11:41:40.286Z,0
2023-02-14T11:42:40.255Z,0
2023-02-14T11:43:40.248Z,0
2023-02-14T11:44:40.239Z,0
2023-02-14T11:45:40.312Z,0
2023-02-14T11:46:40.225Z,0
2023-02-14T11:47:40.206Z,0
2023-02-14T11:48:40.211Z,0
2023-02-14T11:49:40.191Z,0
2023-02-14T11:50:40.184Z,0
2023-02-14T11:51:40.172Z,0
2023-02-14T11:52:40.151Z,0
2023-02-14T11:53:40.136Z,0
2023-02-14T11:54:40.131Z,0
2023-02-14T11:55:40.150Z,0
2023-02-14T11:56:40.103Z,0
2023-02-14T11:57:40.124Z,0
2023-02-14T11:58:40.096Z,0
2023-02-14T11:59:40.082Z,0
2023-02-14T12:00:40.063Z,0
2023-02-14T12:01:40.056Z,0
2023-02-14T12:02:40.037Z,0
2023-02-14T12:03:40.057Z,0
2023-02-14T12:04:40.032Z,0
2023-02-14T12:05:40.305Z,0
2023-02-14T12:06:40.007Z,0
2023-02-14T12:07:39.991Z,0
2023-02-14T12:08:39.985Z,0
2023-02-14T12:09:39.988Z,0
2023-02-14T12:10:39.959Z,0
2023-02-14T12:11:39.951Z,0
2023-02-14T12:12:39.991Z,0
2023-02-14T12:13:39.934Z,0
2023-02-14T12:14:39.961Z,0
2023-02-14T12:15:39.904Z,0
2023-02-14T12:16:39.902Z,0
2023-02-14T12:17:39.888Z,0
2023-02-14T12:18:39.908Z,36.08
2023-02-14T12:19:39.871Z,35.15
2023-02-14T12:20:39.858Z,34.53
2023-02-14T12:21:39.885Z,35.25
2023-02-14T12:22:49.978Z,0
2023-02-14T12:29:39.484Z,36.51
2023-02-14T12:38:44.525Z,37.19
2023-02-14T12:39:44.475Z,35.86
2023-02-14T12:40:44.447Z,36.33
2023-02-14T12:41:44.408Z,35.6
2023-02-14T12:42:44.457Z,36.01
2023-02-14T12:43:44.380Z,34.55
2023-02-14T12:44:44.394Z,33.41
2023-02-14T12:45:44.402Z,33.33
2023-02-14T12:46:44.378Z,34.06
2023-02-14T12:47:44.333Z,35.09
2023-02-14T12:48:44.335Z,35.7
2023-02-14T12:49:44.337Z,0
2023-02-14T12:50:54.130Z,0
2023-02-14T12:51:44.323Z,0
2023-02-14T12:52:44.306Z,0
2023-02-14T12:53:44.325Z,0
2023-02-14T12:54:44.286Z,0
2023-02-14T12:55:44.260Z,0
2023-02-14T12:56:44.275Z,0
2023-02-14T12:57:44.245Z,0
2023-02-14T12:58:44.224Z,0
2023-02-14T12:59:44.210Z,0
2023-02-14T13:00:44.209Z,0
2023-02-14T13:01:44.240Z,0
2023-02-14T13:02:44.181Z,0
2023-02-14T13:03:44.173Z,0
2023-02-14T13:04:44.178Z,0
2023-02-14T13:05:44.163Z,0
2023-02-14T13:06:44.136Z,0
2023-02-14T13:07:44.135Z,0
2023-02-14T17:00:06.777Z,61.25
2023-02-14T17:01:06.769Z,60.55
2023-02-14T17:02:06.749Z,60.88
2023-02-14T17:03:06.819Z,61.18
2023-02-14T17:04:06.730Z,61.39
2023-02-14T17:05:06.708Z,62.05
2023-02-14T17:06:06.743Z,62.46
2023-02-14T17:07:06.690Z,63.1
2023-02-14T17:08:06.701Z,63.13
2023-02-14T17:09:06.718Z,63.54
2023-02-14T17:10:06.737Z,63.64
2023-02-14T17:11:06.685Z,63.74
2023-02-14T17:12:06.640Z,63.94
2023-02-14T17:13:06.699Z,64.38
2023-02-14T17:17:43.478Z,61.99
2023-02-14T17:18:43.487Z,62.13
2023-02-14T17:19:43.462Z,62.02
2023-02-14T17:20:43.443Z,62.16
2023-02-14T17:21:43.456Z,62.33
2023-02-14T17:22:43.416Z,60.39
2023-02-14T17:23:43.454Z,59.48
2023-02-14T17:24:43.440Z,60.44
2023-02-14T17:25:43.426Z,61.32
2023-02-14T17:26:43.400Z,62.49
2023-02-14T17:27:43.355Z,63.33
2023-02-14T17:28:43.352Z,63.54
2023-02-14T17:29:43.339Z,63.64
2023-02-14T17:30:43.338Z,64.18
2023-02-14T17:31:43.314Z,64.58
2023-02-14T17:32:43.330Z,64.45
2023-02-14T17:33:43.293Z,63.74
2023-02-14T17:34:43.334Z,63.84
2023-02-14T17:35:43.350Z,63.84
2023-02-14T17:36:43.254Z,63.74
2023-02-14T17:37:43.271Z,63.97
2023-02-14T17:38:43.247Z,64.28
2023-02-14T17:39:43.292Z,64.61
2023-02-14T17:40:43.218Z,64.48
2023-02-14T17:41:43.202Z,64.48
2023-02-14T17:42:43.250Z,64.58
2023-02-14T17:43:43.187Z,64.38
2023-02-14T17:44:43.246Z,64.38
2023-02-14T17:45:43.168Z,64.38
2023-02-14T17:46:43.149Z,64.28
2023-02-14T17:47:43.137Z,64.28
2023-02-14T17:48:43.173Z,64.07
2023-02-14T17:49:43.129Z,64.18
2023-02-14T17:50:43.109Z,64.07
2023-02-14T17:51:43.090Z,64.18
2023-02-14T17:52:43.081Z,63.97
2023-02-14T17:53:43.077Z,64.11
2023-02-14T17:54:43.063Z,64.2
2023-02-14T17:55:43.056Z,64.31
2023-02-14T17:56:43.053Z,64.2
2023-02-14T17:57:43.036Z,64.31
2023-02-14T17:58:43.017Z,63.54
2023-02-14T17:59:43.033Z,62.79
2023-02-14T18:00:43.000Z,62.49
2023-02-14T18:01:43.019Z,61.85
2023-02-14T18:02:42.975Z,61.55
2023-02-14T18:03:42.961Z,61.44
2023-02-14T18:04:42.962Z,61.34
2023-02-14T18:05:42.957Z,61.11
2023-02-14T18:06:42.954Z,61.11
2023-02-14T18:07:42.923Z,61.11
2023-02-14T18:08:43.077Z,60.27
2023-02-14T18:09:42.897Z,60.17
2023-02-14T18:10:42.935Z,59.43
2023-02-14T18:11:42.891Z,59.66
2023-02-14T18:12:42.865Z,59.89
2023-02-14T18:13:42.870Z,60.4
2023-02-14T18:14:42.855Z,60.71
2023-02-14T18:15:42.852Z,60.5
2023-02-14T18:16:42.829Z,60.6
2023-02-14T18:17:42.821Z,60.5
2023-02-14T18:18:42.825Z,60.94
2023-02-14T18:19:42.820Z,61.71
2023-02-14T18:20:42.787Z,62.55
2023-02-14T18:21:42.803Z,63.42
2023-02-14T18:22:42.801Z,63.83
2023-02-14T18:23:42.754Z,64.57
2023-02-14T18:24:42.760Z,65.31
2023-02-14T18:25:42.741Z,65.86
2023-02-14T18:26:42.719Z,66.06
2023-02-14T18:27:42.730Z,0
2023-02-14T18:28:42.700Z,0
2023-02-14T18:29:42.708Z,0
2023-02-14T18:30:42.717Z,0
2023-02-14T18:31:42.694Z,0
2023-02-14T18:32:42.675Z,0
2023-02-14T18:33:42.967Z,67.08
2023-02-14T18:34:43.648Z,64.31
2023-02-14T18:35:42.648Z,63.16
2023-02-14T18:36:42.622Z,61.47
2023-02-14T18:37:42.604Z,61.57
2023-02-14T18:38:42.605Z,60.3
2023-02-14T18:39:42.602Z,60.3
2023-02-14T18:40:42.597Z,60.43
2023-02-14T18:41:42.647Z,60.53
2023-02-14T18:42:42.592Z,60.97
2023-02-14T18:43:42.549Z,61.07
2023-02-14T18:44:42.580Z,61.71
2023-02-14T18:45:42.586Z,0
2023-02-14T18:46:42.516Z,0
2023-02-14T18:47:42.513Z,66.33
2023-02-14T18:48:42.496Z,66.09
2023-02-14T18:49:42.479Z,65.52
2023-02-14T18:50:42.475Z,63.7
2023-02-14T18:51:42.463Z,63.73
2023-02-14T18:52:42.453Z,64.84
2023-02-14T18:53:42.447Z,0
2023-02-14T18:54:42.442Z,0
2023-02-14T18:55:42.414Z,0
2023-02-14T18:56:42.405Z,0
2023-02-14T18:57:42.396Z,67.68
2023-02-14T18:58:42.387Z,67.48
2023-02-14T18:59:42.377Z,67.58
2023-02-14T19:00:42.362Z,67.92
2023-02-14T19:01:42.375Z,0
2023-02-14T19:02:42.339Z,0
2023-02-14T19:03:42.345Z,0
2023-02-14T19:04:42.345Z,67.01
2023-02-14T19:05:42.312Z,65.34
2023-02-14T19:06:42.304Z,64.32
2023-02-14T19:07:42.296Z,64.09
2023-02-14T19:08:42.319Z,64.32
2023-02-14T19:09:42.272Z,65.41
2023-02-14T19:10:42.476Z,65.51
2023-02-14T19:11:42.258Z,65.41
2023-02-14T19:12:42.233Z,65.41
2023-02-14T19:13:42.230Z,64.87
2023-02-14T19:14:42.216Z,64.97
2023-02-14T19:15:42.211Z,65.31
2023-02-14T19:16:42.190Z,0
2023-02-14T19:17:42.191Z,0
2023-02-14T19:18:42.216Z,0
2023-02-14T19:19:42.167Z,0
2023-02-14T19:20:42.164Z,67.57
2023-02-14T19:21:42.143Z,67.13
2023-02-14T19:22:42.139Z,0
2023-02-14T19:23:42.132Z,0
2023-02-14T19:24:42.135Z,0
2023-02-14T19:25:42.452Z,0
2023-02-14T19:26:42.143Z,0
2023-02-14T19:27:42.070Z,0
2023-02-14T19:28:42.099Z,0
2023-02-14T19:29:42.062Z,0
2023-02-14T19:30:42.039Z,0
2023-02-14T19:31:42.030Z,0
2023-02-14T19:32:42.063Z,68.15
2023-02-14T19:33:42.025Z,67.94
2023-02-14T19:34:42.001Z,68.12
2023-02-14T19:35:42.008Z,67.5
2023-02-14T19:36:41.975Z,67.37
2023-02-14T19:37:41.970Z,67.19
2023-02-14T19:38:41.964Z,66.78
2023-02-14T19:39:41.955Z,67.19
2023-02-14T19:40:41.946Z,66.55
2023-02-14T19:41:41.965Z,65.37
2023-02-14T19:42:41.957Z,64.22
2023-02-14T19:43:41.930Z,64.22
2023-02-14T19:44:41.930Z,63.6
2023-02-14T19:45:41.924Z,63.47
2023-02-14T19:46:41.883Z,63.6
2023-02-14T19:47:41.876Z,63.13
2023-02-14T19:48:41.859Z,62.32
2023-02-14T19:49:41.842Z,62.52
2023-02-14T19:50:41.832Z,62.11
2023-02-14T19:51:41.820Z,62.11
2023-02-14T19:52:41.806Z,62.35
2023-02-14T19:53:41.856Z,62.96
2023-02-14T19:54:41.790Z,62.68
2023-02-14T19:55:41.789Z,62.76
2023-02-14T19:56:41.799Z,62.65
2023-02-14T19:57:41.755Z,62.45
2023-02-14T19:58:41.743Z,62.55
2023-02-14T19:59:41.736Z,62.45
2023-02-14T20:00:41.723Z,62.96
2023-02-14T20:01:41.713Z,62.88
2023-02-14T20:02:41.706Z,63.06
2023-02-14T20:03:41.728Z,62.55
2023-02-14T20:04:41.691Z,62.65
2023-02-14T20:05:41.686Z,62.55
2023-02-14T20:06:41.659Z,62.76
2023-02-14T20:07:41.655Z,62.76
2023-02-14T20:08:41.639Z,62.68
2023-02-14T20:09:41.661Z,63.53
2023-02-14T20:10:41.623Z,0
2023-02-14T20:11:41.626Z,63.9
2023-02-14T20:12:41.627Z,63.29
2023-02-14T20:13:41.597Z,63.37
2023-02-14T20:14:41.574Z,62.85
2023-02-14T20:15:41.606Z,62.62
2023-02-14T20:16:41.562Z,62.76
2023-02-14T20:17:41.567Z,63.09
2023-02-14T20:18:41.542Z,63.9
2023-02-14T20:19:41.558Z,63.93
2023-02-14T20:20:41.510Z,64.45
2023-02-14T20:21:41.499Z,63.6
2023-02-14T20:22:41.493Z,64.24
2023-02-14T20:23:41.481Z,64.34
2023-02-14T20:24:41.495Z,64.89
2023-02-14T20:25:41.497Z,65.09
2023-02-14T20:26:41.444Z,64.89
2023-02-14T20:27:41.442Z,64.58
2023-02-14T20:28:41.434Z,65.09
2023-02-14T20:29:41.414Z,0
2023-02-14T20:30:41.431Z,67.54
2023-02-14T20:31:41.393Z,66.07
2023-02-14T20:32:41.424Z,66.04
2023-02-14T20:33:42.386Z,65.94
2023-02-14T20:34:41.364Z,65.12
2023-02-14T20:35:41.357Z,65.6
2023-02-14T20:36:41.352Z,65.3
2023-02-14T20:37:41.329Z,65.02
2023-02-14T20:38:41.378Z,65.84
2023-02-14T20:39:41.344Z,65.87
2023-02-14T20:40:41.327Z,65.53
2023-02-14T20:41:41.308Z,65.33
2023-02-14T20:42:41.324Z,65.33
2023-02-14T20:43:41.340Z,64.68
2023-02-14T20:44:41.303Z,64.45
2023-02-14T20:45:41.258Z,63.83
2023-02-14T20:46:41.269Z,64.14
2023-02-14T20:47:41.252Z,63.86
2023-02-14T20:48:41.207Z,64.58
2023-02-14T20:49:41.350Z,64.58
2023-02-14T20:50:41.209Z,64.27
2023-02-14T20:51:41.180Z,65.22
2023-02-14T20:52:41.175Z,65.02
2023-02-14T20:53:41.169Z,64.89
2023-02-14T20:54:41.145Z,0
2023-02-14T20:55:41.162Z,66.78
2023-02-14T20:56:42.129Z,67.83
2023-02-14T20:57:41.128Z,68.65
2023-02-14T20:58:41.110Z,68.68
2023-02-14T20:59:41.105Z,69.64
2023-02-14T21:00:41.097Z,69.84
2023-02-14T21:01:41.069Z,70.39
2023-02-14T21:02:41.063Z,70.77
2023-02-14T21:03:41.050Z,70.29
2023-02-14T21:04:41.105Z,70.6
2023-02-14T21:05:41.043Z,70.39
2023-02-14T21:06:41.056Z,70.73
2023-02-14T21:07:41.010Z,70.8
2023-02-14T21:08:41.012Z,70.84
2023-02-14T21:09:41.038Z,71.01
2023-02-14T21:10:41.193Z,70.08
2023-02-14T21:11:40.966Z,70.39
2023-02-14T21:12:40.955Z,70.29
2023-02-14T21:13:40.963Z,70.5
2023-02-14T21:14:40.934Z,69.95
2023-02-14T21:15:40.923Z,69.13
2023-02-14T21:16:40.929Z,69.33
2023-02-14T21:17:40.902Z,69.88
2023-02-14T21:18:40.894Z,69.74
2023-02-14T21:19:40.882Z,69.13
2023-02-14T21:20:40.869Z,69.26
2023-02-14T21:21:40.866Z,69.67
2023-02-14T21:22:40.860Z,69.91
2023-02-14T21:23:40.836Z,69.98
2023-02-14T21:24:40.843Z,69.91
2023-02-14T21:25:40.818Z,70.22
2023-02-14T21:26:40.813Z,69.78
2023-02-14T21:29:26.265Z,68.75
2023-02-14T21:30:26.201Z,69.81
2023-02-14T21:31:26.181Z,69.94
2023-02-14T21:33:58.981Z,70.32
2023-02-14T21:34:58.930Z,70.01
2023-02-14T21:35:58.927Z,70.15
2023-02-14T21:36:59.043Z,70.15
2023-02-14T21:37:58.924Z,70.04
2023-02-14T21:38:58.882Z,70.36
2023-02-14T21:39:58.908Z,69.84
2023-02-14T21:40:58.870Z,69.13
2023-02-14T21:41:58.860Z,68.17
2023-02-14T21:42:58.842Z,67.46
2023-02-14T21:43:58.839Z,66.91
2023-02-14T21:44:58.862Z,66.4
2023-02-14T21:45:58.851Z,66.6
2023-02-14T21:46:58.806Z,66.09
2023-02-14T21:47:58.802Z,66.5
2023-02-14T21:48:58.782Z,66.6
2023-02-14T21:49:58.782Z,66.5
2023-02-14T21:50:58.763Z,66.09
2023-02-14T21:51:58.745Z,66.19
2023-02-14T21:52:58.737Z,65.75
2023-02-14T21:53:58.732Z,65.58
2023-02-14T21:54:58.719Z,65.99
2023-02-14T21:55:58.714Z,66.09
2023-02-14T21:56:58.698Z,65.78
2023-02-14T21:57:58.682Z,65.89
2023-02-14T21:58:58.679Z,66.4
2023-02-14T21:59:58.686Z,66.19
2023-02-14T22:00:58.660Z,66.4
2023-02-14T22:01:58.645Z,65.99
2023-02-14T22:02:58.640Z,66.09
2023-02-14T22:03:58.649Z,67.41
2023-02-14T22:04:58.608Z,68.91
2023-02-14T22:05:58.615Z,69.98
2023-02-14T22:06:58.636Z,70.73
2023-02-14T22:07:58.582Z,70.73
2023-02-14T22:08:58.570Z,71.37
2023-02-14T22:09:58.568Z,71.79
2023-02-14T22:10:58.565Z,71.79
2023-02-14T22:11:58.538Z,71.79
2023-02-14T22:12:58.529Z,71.69
2023-02-14T22:13:58.518Z,71.86
2023-02-14T22:14:58.523Z,71.37
2023-02-14T22:15:58.570Z,71.37
2023-02-14T22:16:58.556Z,71.24
2023-02-14T22:17:58.566Z,71.14
2023-02-14T22:18:58.469Z,70.62
2023-02-14T22:19:58.467Z,70.83
2023-02-14T22:20:58.459Z,71.48
2023-02-14T22:21:58.441Z,71.48
2023-02-14T22:22:58.459Z,72.09
2023-02-14T22:23:58.413Z,71.69
2023-02-14T22:24:58.404Z,71.69
2023-02-14T22:25:58.396Z,71.92
2023-02-14T22:26:58.381Z,71.82
2023-02-14T22:29:57.712Z,70.83
2023-02-14T22:32:30.414Z,68.65
2023-02-14T22:33:30.408Z,68.34
2023-02-14T22:34:30.402Z,68.13
2023-02-14T22:35:38.014Z,67.59
2023-02-14T22:38:58.994Z,66.12
2023-02-14T22:46:53.965Z,67.11
2023-02-14T22:47:53.930Z,66.42
2023-02-14T22:48:53.932Z,67.79
2023-02-14T22:49:53.902Z,69.02
2023-02-14T22:50:53.902Z,68.77
2023-02-14T22:51:53.884Z,69.18
2023-02-14T22:52:53.886Z,69.56
2023-02-14T22:53:53.858Z,69.29
2023-02-14T22:54:53.849Z,68.78
2023-02-14T22:55:53.834Z,68.13
2023-02-14T22:56:53.836Z,66.25
2023-02-14T22:57:53.821Z,66.12
2023-02-14T22:58:53.804Z,64.69
2023-02-14T22:59:54.467Z,65.61
2023-02-14T23:00:53.803Z,65.61
2023-02-14T23:01:53.784Z,65.2
2023-02-14T23:02:53.770Z,65.23
2023-02-14T23:03:53.753Z,65.54
2023-02-14T23:04:53.765Z,65.1
2023-02-14T23:05:53.741Z,65.44
2023-02-14T23:06:53.729Z,65.54
2023-02-14T23:07:53.720Z,65.44
2023-02-14T23:08:53.700Z,65.91
2023-02-14T23:09:53.696Z,66.19
2023-02-14T23:10:53.693Z,66.11
2023-02-14T23:11:53.674Z,66.31
2023-02-14T23:12:53.677Z,66.63
2023-02-14T23:13:53.649Z,66.9
2023-02-14T23:14:53.697Z,66.28
2023-02-14T23:15:53.684Z,66.93
2023-02-14T23:16:53.685Z,66.7
2023-02-14T23:17:53.653Z,67
2023-02-14T23:18:53.812Z,66.77
2023-02-14T23:19:53.652Z,66.56
2023-02-14T23:20:53.614Z,65.7
2023-02-14T23:21:53.582Z,67.48
2023-02-14T23:22:53.554Z,67.95
2023-02-14T23:23:53.552Z,68.6
2023-02-14T23:24:53.537Z,69.56
2023-02-14T23:25:53.526Z,70.31
2023-02-14T23:26:53.514Z,70.93
2023-02-14T23:27:53.507Z,70.72
2023-02-14T23:28:53.501Z,70.93
2023-02-14T23:29:53.499Z,70.38
2023-02-14T23:30:53.473Z,70.69
2023-02-14T23:31:53.485Z,70.38
2023-02-14T23:32:53.468Z,70.18
2023-02-14T23:33:53.448Z,70.07
2023-02-14T23:34:53.434Z,70.28
2023-02-14T23:35:53.425Z,70.72
2023-02-14T23:36:53.450Z,69.97
2023-02-14T23:37:53.397Z,70.38
2023-02-14T23:38:53.398Z,70.42
2023-02-14T23:39:53.397Z,70.83
2023-02-14T23:40:53.372Z,71.37
2023-02-14T23:41:53.367Z,71.24
2023-02-14T23:42:53.349Z,71.48
2023-02-14T23:43:53.425Z,71.24
2023-02-14T23:44:53.361Z,71.14
2023-02-14T23:45:53.318Z,70.83
2023-02-14T23:46:53.307Z,71.17
2023-02-14T23:47:53.296Z,71.92
2023-02-14T23:48:53.281Z,72.3
2023-02-14T23:49:53.273Z,72.13
2023-02-14T23:50:53.272Z,72.33
2023-02-14T23:51:53.249Z,72.33
2023-02-14T23:52:53.239Z,71.92
2023-02-14T23:53:53.228Z,72.23
2023-02-14T23:54:53.222Z,72.03
2023-02-14T23:55:53.214Z,72.64
2023-02-14T23:56:53.234Z,72.16
2023-02-14T23:57:53.189Z,72.58
2023-02-14T23:58:53.181Z,73.19
2023-02-14T23:59:53.171Z,72.85
